createdAt,value
2019-05-29T00:01:21.692Z,2.10
2019-05-29T00:03:49.962Z,2.77
2019-05-29T00:06:18.641Z,3.20
2019-05-29T00:08:47.127Z,2.07
2019-05-29T00:11:15.615Z,2.30
2019-05-29T00:13:44.086Z,2.43
2019-05-29T00:16:14.524Z,2.57
2019-05-29T00:18:43.037Z,2.30
2019-05-29T00:21:11.971Z,2.30
2019-05-29T00:23:41.599Z,2.60
2019-05-29T00:26:10.424Z,2.50
2019-05-29T00:28:38.914Z,3.50
2019-05-29T00:31:07.750Z,2.63
2019-05-29T00:33:36.286Z,2.47
2019-05-29T00:36:06.159Z,2.70
2019-05-29T00:38:34.843Z,3.47
2019-05-29T00:41:03.341Z,3.00
2019-05-29T00:43:31.840Z,3.03
2019-05-29T00:46:00.340Z,3.10
2019-05-29T00:48:28.815Z,5.90
2019-05-29T00:50:57.290Z,3.07
2019-05-29T00:53:25.800Z,3.03
2019-05-29T00:55:54.276Z,3.17
2019-05-29T00:58:22.747Z,3.20
2019-05-29T01:00:51.289Z,3.80
2019-05-29T01:03:19.862Z,4.37
2019-05-29T01:05:48.319Z,3.97
2019-05-29T01:08:17.007Z,4.40
2019-05-29T01:10:45.481Z,3.80
2019-05-29T01:13:15.076Z,4.33
2019-05-29T01:15:43.735Z,3.67
2019-05-29T01:18:13.698Z,3.63
2019-05-29T01:20:42.427Z,4.40
2019-05-29T01:23:12.083Z,3.90
2019-05-29T01:25:40.672Z,3.90
2019-05-29T01:28:09.142Z,3.57
2019-05-29T01:30:37.643Z,3.00
2019-05-29T01:33:06.194Z,3.80
2019-05-29T01:35:34.670Z,3.63
2019-05-29T01:38:04.449Z,3.07
2019-05-29T01:40:32.915Z,3.80
2019-05-29T01:43:01.378Z,3.17
2019-05-29T01:45:29.892Z,3.60
2019-05-29T01:47:58.365Z,3.23
2019-05-29T01:50:27.943Z,4.27
2019-05-29T01:52:56.526Z,3.97
2019-05-29T01:55:24.977Z,4.87
2019-05-29T01:57:53.448Z,4.47
2019-05-29T02:00:24.003Z,4.40
2019-05-29T02:02:52.632Z,4.20
2019-05-29T02:05:22.046Z,3.70
2019-05-29T02:07:50.774Z,4.07
2019-05-29T02:10:20.295Z,3.03
2019-05-29T02:12:48.856Z,4.23
2019-05-29T02:15:29.359Z,3.33
2019-05-29T02:17:47.925Z,3.03
2019-05-29T02:20:16.927Z,2.93
2019-05-29T02:22:45.526Z,3.00
2019-05-29T02:25:17.321Z,3.50
2019-05-29T02:27:44.317Z,3.10
2019-05-29T02:30:12.896Z,2.70
2019-05-29T02:32:41.377Z,3.00
2019-05-29T02:35:09.932Z,2.80
2019-05-29T02:37:38.664Z,2.90
2019-05-29T02:40:08.409Z,2.20
2019-05-29T02:42:37.033Z,2.60
2019-05-29T02:45:09.000Z,2.80
2019-05-29T02:47:37.455Z,2.90
2019-05-29T02:50:07.943Z,3.33
2019-05-29T02:52:36.446Z,2.87
2019-05-29T02:55:07.065Z,2.13
2019-05-29T02:57:35.556Z,3.10
2019-05-29T03:00:06.193Z,2.17
2019-05-29T03:02:34.668Z,2.60
2019-05-29T03:05:03.687Z,2.70
2019-05-29T03:07:32.761Z,1.83
2019-05-29T03:10:01.493Z,2.60
2019-05-29T03:12:31.443Z,2.33
2019-05-29T03:15:00.249Z,2.43
2019-05-29T03:17:29.811Z,2.80
2019-05-29T03:19:58.485Z,1.97
2019-05-29T03:22:28.689Z,1.73
2019-05-29T03:24:57.281Z,2.40
2019-05-29T03:27:25.764Z,1.70
2019-05-29T03:29:54.254Z,1.90
2019-05-29T03:32:22.735Z,1.90
2019-05-29T03:34:51.189Z,1.97
2019-05-29T03:37:19.699Z,1.50
2019-05-29T03:39:48.178Z,1.30
2019-05-29T03:42:16.873Z,2.00
2019-05-29T03:44:45.411Z,1.93
2019-05-29T03:47:13.886Z,2.50
2019-05-29T03:49:42.362Z,2.13
2019-05-29T03:52:10.875Z,1.80
2019-05-29T03:54:39.367Z,1.70
2019-05-29T03:57:07.842Z,2.00
2019-05-29T03:59:37.460Z,2.00
2019-05-29T04:02:06.085Z,1.60
2019-05-29T04:04:36.220Z,2.00
2019-05-29T04:07:04.787Z,2.33
2019-05-29T04:09:33.482Z,1.40
2019-05-29T04:12:01.911Z,1.90
2019-05-29T04:14:31.625Z,2.27
2019-05-29T04:17:00.688Z,1.87
2019-05-29T04:19:30.494Z,2.13
2019-05-29T04:22:03.039Z,3.00
2019-05-29T04:24:34.024Z,4.23
2019-05-29T04:27:04.543Z,3.40
2019-05-29T04:29:34.218Z,2.37
2019-05-29T04:32:02.773Z,2.10
2019-05-29T04:34:31.688Z,2.27
2019-05-29T04:37:01.561Z,2.70
2019-05-29T04:39:30.591Z,2.90
2019-05-29T04:41:59.173Z,2.00
2019-05-29T04:44:28.799Z,2.03
2019-05-29T04:47:10.389Z,1.77
2019-05-29T04:49:29.257Z,1.80
2019-05-29T04:51:57.979Z,2.50
2019-05-29T04:54:26.471Z,1.60
2019-05-29T04:56:54.919Z,1.83
2019-05-29T04:59:23.458Z,2.10
2019-05-29T05:01:51.921Z,2.50
2019-05-29T05:04:20.393Z,2.20
2019-05-29T05:06:48.909Z,2.00
2019-05-29T05:09:17.375Z,1.63
2019-05-29T05:11:45.924Z,1.70
2019-05-29T05:14:14.426Z,1.80
2019-05-29T05:16:42.937Z,2.47
2019-05-29T05:19:11.461Z,2.00
2019-05-29T05:21:40.351Z,2.67
2019-05-29T05:24:08.940Z,2.00
2019-05-29T05:26:38.399Z,2.13
2019-05-29T05:29:07.119Z,1.73
2019-05-29T05:31:36.502Z,2.27
2019-05-29T05:34:05.444Z,1.77
2019-05-29T05:36:34.672Z,1.43
2019-05-29T05:39:03.228Z,1.63
2019-05-29T05:41:32.711Z,1.70
2019-05-29T05:44:01.417Z,2.97
2019-05-29T05:46:30.961Z,1.53
2019-05-29T05:48:59.492Z,1.73
2019-05-29T05:51:28.017Z,1.50
2019-05-29T05:53:56.508Z,1.73
2019-05-29T05:56:25.002Z,1.40
2019-05-29T05:58:53.534Z,1.67
2019-05-29T06:01:22.021Z,2.07
2019-05-29T06:03:50.508Z,2.00
2019-05-29T06:06:19.033Z,1.70
2019-05-29T06:08:47.516Z,1.83
2019-05-29T06:11:15.995Z,2.23
2019-05-29T06:13:44.494Z,2.10
2019-05-29T06:16:12.978Z,2.47
2019-05-29T06:18:42.789Z,1.87
2019-05-29T06:21:11.615Z,1.50
2019-05-29T06:23:41.130Z,1.50
2019-05-29T06:26:09.668Z,1.57
2019-05-29T06:28:39.114Z,1.80
2019-05-29T06:31:07.662Z,1.50
2019-05-29T06:33:37.327Z,1.83
2019-05-29T06:36:05.961Z,1.40
2019-05-29T06:38:35.597Z,1.40
2019-05-29T06:41:04.307Z,1.30
2019-05-29T06:43:33.792Z,1.77
2019-05-29T06:46:02.378Z,1.10
2019-05-29T06:48:42.885Z,1.57
2019-05-29T06:51:01.504Z,1.50
2019-05-29T06:53:30.017Z,1.20
2019-05-29T06:55:59.716Z,1.90
2019-05-29T06:58:28.738Z,1.47
2019-05-29T07:00:57.216Z,1.50
2019-05-29T07:03:25.706Z,1.73
2019-05-29T07:05:54.278Z,1.30
2019-05-29T07:08:37.387Z,1.33
2019-05-29T07:10:52.950Z,1.77
2019-05-29T07:13:21.493Z,1.27
2019-05-29T07:15:49.943Z,1.60
2019-05-29T07:18:18.430Z,1.43
2019-05-29T07:20:47.072Z,1.40
2019-05-29T07:23:15.597Z,1.43
2019-05-29T07:25:45.490Z,2.10
2019-05-29T07:28:14.346Z,1.63
2019-05-29T07:30:48.263Z,1.40
2019-05-29T07:33:13.094Z,1.70
2019-05-29T07:35:41.609Z,1.30
2019-05-29T07:38:10.091Z,1.60
2019-05-29T07:40:40.488Z,1.57
2019-05-29T07:43:08.817Z,1.33
2019-05-29T07:45:37.781Z,1.73
2019-05-29T07:48:06.744Z,1.53
2019-05-29T07:50:36.356Z,1.50
2019-05-29T07:53:05.094Z,1.17
2019-05-29T07:55:33.584Z,1.17
2019-05-29T07:58:02.090Z,1.37
2019-05-29T08:00:35.730Z,1.70
2019-05-29T08:03:00.855Z,1.63
2019-05-29T08:05:29.377Z,1.40
2019-05-29T08:07:57.862Z,1.20
2019-05-29T08:10:26.697Z,2.07
2019-05-29T08:12:56.018Z,1.73
2019-05-29T08:15:24.790Z,1.37
2019-05-29T08:17:53.262Z,1.73
2019-05-29T08:20:22.108Z,1.43
2019-05-29T08:22:51.065Z,1.30
2019-05-29T08:25:19.823Z,1.37
2019-05-29T08:27:48.861Z,1.47
2019-05-29T08:30:19.070Z,1.40
2019-05-29T08:32:47.539Z,1.10
2019-05-29T08:35:16.196Z,1.10
2019-05-29T08:37:44.964Z,1.10
2019-05-29T08:40:14.122Z,0.90
2019-05-29T08:42:43.172Z,1.13
2019-05-29T08:45:11.860Z,1.23
2019-05-29T08:47:41.395Z,1.50
2019-05-29T08:50:18.542Z,1.03
2019-05-29T08:52:43.835Z,1.30
2019-05-29T08:55:13.901Z,1.10
2019-05-29T08:57:42.691Z,1.27
2019-05-29T09:00:12.006Z,1.27
2019-05-29T09:02:40.483Z,1.00
2019-05-29T09:05:09.680Z,0.93
2019-05-29T09:07:38.139Z,1.10
2019-05-29T09:10:07.462Z,1.03
2019-05-29T09:12:35.999Z,1.40
2019-05-29T09:15:09.667Z,1.10
2019-05-29T09:17:38.547Z,1.40
2019-05-29T09:20:16.299Z,1.10
2019-05-29T09:22:37.908Z,1.30
2019-05-29T09:25:07.128Z,1.20
2019-05-29T09:27:35.632Z,1.47
2019-05-29T09:30:05.152Z,1.47
2019-05-29T09:32:49.265Z,1.40
2019-05-29T09:35:04.380Z,1.17
2019-05-29T09:37:32.844Z,1.33
2019-05-29T09:40:01.386Z,1.27
2019-05-29T09:42:29.904Z,1.20
2019-05-29T09:44:58.374Z,1.10
2019-05-29T09:47:26.880Z,1.53
2019-05-29T09:49:55.397Z,1.70
2019-05-29T09:52:25.376Z,1.17
2019-05-29T09:54:54.678Z,1.40
2019-05-29T09:57:23.183Z,1.07
2019-05-29T09:59:53.820Z,1.20
2019-05-29T10:02:21.963Z,0.83
2019-05-29T10:04:51.609Z,1.03
2019-05-29T10:07:21.355Z,1.20
2019-05-29T10:09:49.833Z,1.43
2019-05-29T10:12:18.332Z,1.10
2019-05-29T10:14:46.853Z,1.10
2019-05-29T10:17:15.332Z,0.97
2019-05-29T10:19:43.871Z,1.30
2019-05-29T10:22:12.336Z,1.60
2019-05-29T10:24:40.813Z,1.07
2019-05-29T10:27:09.331Z,0.90
2019-05-29T10:29:37.818Z,1.03
2019-05-29T10:32:06.288Z,1.57
2019-05-29T10:34:34.812Z,1.17
2019-05-29T10:37:03.428Z,1.10
2019-05-29T10:39:31.908Z,1.27
2019-05-29T10:42:00.417Z,1.37
2019-05-29T10:44:28.884Z,1.60
2019-05-29T10:46:57.363Z,0.97
2019-05-29T10:49:25.949Z,0.93
2019-05-29T10:52:11.785Z,1.60
2019-05-29T10:54:24.692Z,1.03
2019-05-29T10:56:54.959Z,1.43
2019-05-29T10:59:23.661Z,1.10
2019-05-29T11:01:53.718Z,2.03
2019-05-29T11:04:22.562Z,1.77
2019-05-29T11:06:52.464Z,1.30
2019-05-29T11:09:21.249Z,0.97
2019-05-29T11:11:50.698Z,1.73
2019-05-29T11:14:19.290Z,1.07
2019-05-29T11:16:49.046Z,0.90
2019-05-29T11:19:17.751Z,1.20
2019-05-29T11:21:47.980Z,1.47
2019-05-29T11:24:16.641Z,1.27
2019-05-29T11:26:45.147Z,1.20
2019-05-29T11:29:13.699Z,1.40
2019-05-29T11:31:42.199Z,1.07
2019-05-29T11:34:10.725Z,1.50
2019-05-29T11:36:39.205Z,1.07
2019-05-29T11:39:09.215Z,1.20
2019-05-29T11:41:37.828Z,1.50
2019-05-29T11:44:06.295Z,1.30
2019-05-29T11:46:35.026Z,1.50
2019-05-29T11:49:03.775Z,1.23
2019-05-29T11:51:32.333Z,1.83
2019-05-29T11:54:02.345Z,1.37
2019-05-29T11:56:31.096Z,1.73
2019-05-29T11:58:59.783Z,1.27
2019-05-29T12:01:28.275Z,1.10
2019-05-29T12:04:19.595Z,1.07
2019-05-29T12:06:27.083Z,1.87
2019-05-29T12:08:55.818Z,1.40
2019-05-29T12:11:24.617Z,1.03
2019-05-29T12:13:54.160Z,1.50
2019-05-29T12:16:22.874Z,1.37
2019-05-29T12:18:51.551Z,1.60
2019-05-29T12:21:20.021Z,1.57
2019-05-29T12:23:48.576Z,1.60
2019-05-29T12:26:22.635Z,1.20
2019-05-29T12:28:47.304Z,1.67
2019-05-29T12:31:15.791Z,1.80
2019-05-29T12:33:44.291Z,1.10
2019-05-29T12:36:12.776Z,1.30
2019-05-29T12:38:41.250Z,1.30
2019-05-29T12:41:09.764Z,1.20
2019-05-29T12:43:38.236Z,1.03
2019-05-29T12:46:06.708Z,1.43
2019-05-29T12:48:35.237Z,1.87
2019-05-29T12:51:04.166Z,1.00
2019-05-29T12:53:32.870Z,1.37
2019-05-29T12:56:02.556Z,1.00
2019-05-29T12:58:31.167Z,1.60
2019-05-29T13:01:00.687Z,0.90
2019-05-29T13:03:29.431Z,1.43
2019-05-29T13:05:58.206Z,1.00
2019-05-29T13:08:26.894Z,1.67
2019-05-29T13:10:56.232Z,1.57
2019-05-29T13:13:24.791Z,1.17
2019-05-29T13:15:54.630Z,1.20
2019-05-29T13:18:23.360Z,1.17
2019-05-29T13:20:51.839Z,1.80
2019-05-29T13:23:20.380Z,1.90
2019-05-29T13:25:48.844Z,1.37
2019-05-29T13:28:17.316Z,1.40
2019-05-29T13:30:45.822Z,1.00
2019-05-29T13:33:14.307Z,1.70
2019-05-29T13:35:42.798Z,1.10
2019-05-29T13:38:11.331Z,0.97
2019-05-29T13:40:39.821Z,1.50
2019-05-29T13:43:15.052Z,1.60
2019-05-29T13:45:38.641Z,1.57
2019-05-29T13:48:07.537Z,1.10
2019-05-29T13:50:36.162Z,1.20
2019-05-29T13:53:05.515Z,1.20
2019-05-29T13:55:34.216Z,1.33
2019-05-29T13:58:03.782Z,1.50
2019-05-29T14:00:34.779Z,1.07
2019-05-29T14:03:04.849Z,1.37
2019-05-29T14:05:33.540Z,1.23
2019-05-29T14:08:02.761Z,1.50
2019-05-29T14:10:31.678Z,1.10
2019-05-29T14:13:00.928Z,1.10
2019-05-29T14:15:29.925Z,1.00
2019-05-29T14:18:00.595Z,1.00
2019-05-29T14:20:29.530Z,1.20
2019-05-29T14:22:58.208Z,1.80
2019-05-29T14:25:27.102Z,1.07
2019-05-29T14:27:55.656Z,2.03
2019-05-29T14:30:24.544Z,1.70
2019-05-29T14:32:53.039Z,1.17
2019-05-29T14:35:21.509Z,1.90
2019-05-29T14:37:50.033Z,0.93
2019-05-29T14:40:18.893Z,1.63
2019-05-29T14:42:47.340Z,1.40
2019-05-29T14:45:16.145Z,1.40
2019-05-29T14:47:44.625Z,1.50
2019-05-29T14:50:14.488Z,2.23
2019-05-29T14:52:43.009Z,2.30
2019-05-29T14:55:16.200Z,1.40
2019-05-29T14:57:42.042Z,1.40
2019-05-29T15:00:24.161Z,1.40
2019-05-29T15:02:42.400Z,1.70
2019-05-29T15:05:12.196Z,1.13
2019-05-29T15:07:41.201Z,1.30
2019-05-29T15:10:22.642Z,1.50
2019-05-29T15:12:40.629Z,1.30
2019-05-29T15:15:11.400Z,5.57
2019-05-29T15:17:39.907Z,2.93
2019-05-29T15:20:10.106Z,5.63
2019-05-29T15:22:39.783Z,2.77
2019-05-29T15:25:18.343Z,1.40
2019-05-29T15:27:39.510Z,1.03
2019-05-29T15:30:11.102Z,1.27
2019-05-29T15:32:40.059Z,1.93
2019-05-29T15:35:13.805Z,1.90
2019-05-29T15:37:40.064Z,1.10
2019-05-29T15:40:11.032Z,1.90
2019-05-29T15:42:39.596Z,1.30
2019-05-29T15:45:09.911Z,0.90
2019-05-29T15:47:38.514Z,1.30
2019-05-29T15:50:09.299Z,1.80
2019-05-29T15:52:37.973Z,1.63
2019-05-29T15:55:27.042Z,1.30
2019-05-29T15:57:40.303Z,1.33
2019-05-29T16:00:13.650Z,1.20
2019-05-29T16:02:42.392Z,1.37
2019-05-29T16:05:12.936Z,1.27
2019-05-29T16:07:41.780Z,0.97
2019-05-29T16:10:16.448Z,1.40
2019-05-29T16:12:43.739Z,0.80
2019-05-29T16:15:15.143Z,1.37
2019-05-29T16:17:43.945Z,1.20
2019-05-29T16:20:12.505Z,1.40
2019-05-29T16:22:41.033Z,0.80
2019-05-29T16:25:10.816Z,1.23
2019-05-29T16:27:39.537Z,1.60
2019-05-29T16:30:08.796Z,1.73
2019-05-29T16:32:37.276Z,1.30
2019-05-29T16:35:08.501Z,1.23
2019-05-29T16:37:37.027Z,1.57
2019-05-29T16:40:08.678Z,1.30
2019-05-29T16:42:37.144Z,1.00
2019-05-29T16:45:08.591Z,2.40
2019-05-29T16:47:37.060Z,2.97
2019-05-29T16:50:08.785Z,2.27
2019-05-29T16:52:37.857Z,1.67
2019-05-29T16:55:07.589Z,1.27
2019-05-29T16:57:36.050Z,1.30
2019-05-29T17:00:08.853Z,1.27
2019-05-29T17:02:37.700Z,1.80
2019-05-29T17:05:06.744Z,1.40
2019-05-29T17:07:35.563Z,1.70
2019-05-29T17:10:06.282Z,0.77
2019-05-29T17:12:34.750Z,1.10
2019-05-29T17:15:05.663Z,1.50
2019-05-29T17:17:34.115Z,1.37
2019-05-29T17:20:02.742Z,1.30
2019-05-29T17:22:31.290Z,1.37
2019-05-29T17:24:59.778Z,1.17
2019-05-29T17:27:28.246Z,2.60
2019-05-29T17:29:56.761Z,2.20
2019-05-29T17:32:25.442Z,1.20
2019-05-29T17:34:53.946Z,2.80
2019-05-29T17:37:23.148Z,2.00
2019-05-29T17:39:51.613Z,2.00
2019-05-29T17:42:20.311Z,2.50
2019-05-29T17:44:48.873Z,2.27
2019-05-29T17:47:17.759Z,2.77
2019-05-29T17:49:46.304Z,1.70
2019-05-29T17:52:15.738Z,1.17
2019-05-29T17:54:44.369Z,1.10
2019-05-29T17:57:12.842Z,1.50
2019-05-29T17:59:41.424Z,1.40
2019-05-29T18:02:09.905Z,1.47
2019-05-29T18:04:38.360Z,2.77
2019-05-29T18:07:06.882Z,1.50
2019-05-29T18:09:35.364Z,1.80
2019-05-29T18:12:03.894Z,1.90
2019-05-29T18:14:32.425Z,1.53
2019-05-29T18:17:01.066Z,1.57
2019-05-29T18:19:29.544Z,1.23
2019-05-29T18:21:58.519Z,1.40
2019-05-29T18:24:31.980Z,1.23
2019-05-29T18:27:00.451Z,1.20
2019-05-29T18:29:29.679Z,1.37
2019-05-29T18:32:00.063Z,1.10
2019-05-29T18:34:29.573Z,1.67
2019-05-29T18:36:58.387Z,1.30
2019-05-29T18:39:27.006Z,1.07
2019-05-29T18:41:55.837Z,1.10
2019-05-29T18:44:24.856Z,1.47
2019-05-29T18:46:53.769Z,1.70
2019-05-29T18:49:22.626Z,1.70
2019-05-29T18:51:51.583Z,1.50
2019-05-29T18:54:20.057Z,2.20
2019-05-29T18:57:13.091Z,1.60
2019-05-29T18:59:18.819Z,1.50
2019-05-29T19:01:47.295Z,2.20
2019-05-29T19:04:15.774Z,1.70
2019-05-29T19:06:44.298Z,1.73
2019-05-29T19:09:12.842Z,1.90
2019-05-29T19:11:41.326Z,2.20
2019-05-29T19:14:09.847Z,1.27
2019-05-29T19:16:39.658Z,1.80
2019-05-29T19:19:08.345Z,1.37
2019-05-29T19:21:36.852Z,1.60
2019-05-29T19:24:05.397Z,1.70
2019-05-29T19:26:36.758Z,1.70
2019-05-29T19:29:04.205Z,2.13
2019-05-29T19:31:33.359Z,2.07
2019-05-29T19:34:02.043Z,1.30
2019-05-29T19:36:31.772Z,2.47
2019-05-29T19:39:00.387Z,2.10
2019-05-29T19:41:29.982Z,1.77
2019-05-29T19:43:58.644Z,2.30
2019-05-29T19:46:27.124Z,3.20
2019-05-29T19:48:55.596Z,2.50
2019-05-29T19:51:25.209Z,3.50
2019-05-29T19:53:53.865Z,3.17
2019-05-29T19:56:22.335Z,3.40
2019-05-29T19:58:50.873Z,2.03
2019-05-29T20:01:30.614Z,2.70
2019-05-29T20:03:49.612Z,3.07
2019-05-29T20:06:18.146Z,3.00
2019-05-29T20:08:46.672Z,2.67
2019-05-29T20:11:16.413Z,3.60
2019-05-29T20:13:44.970Z,3.80
2019-05-29T20:16:13.437Z,4.40
2019-05-29T20:18:41.921Z,4.60
2019-05-29T20:21:10.460Z,5.43
2019-05-29T20:23:38.974Z,4.23
2019-05-29T20:26:07.480Z,4.70
2019-05-29T20:28:36.366Z,3.03
2019-05-29T20:31:05.115Z,2.60
2019-05-29T20:33:34.536Z,3.30
2019-05-29T20:36:03.177Z,3.00
2019-05-29T20:38:31.650Z,2.80
2019-05-29T20:41:00.113Z,2.37
2019-05-29T20:43:28.642Z,2.47
2019-05-29T20:45:57.118Z,2.53
2019-05-29T20:48:25.595Z,2.00
2019-05-29T20:50:54.130Z,2.10
2019-05-29T20:53:22.606Z,2.20
2019-05-29T20:55:51.084Z,2.43
2019-05-29T20:58:24.471Z,2.53
2019-05-29T21:00:49.808Z,2.60
2019-05-29T21:03:18.463Z,2.40
2019-05-29T21:05:46.965Z,3.03
2019-05-29T21:08:15.440Z,3.30
2019-05-29T21:10:43.931Z,2.70
2019-05-29T21:13:12.926Z,3.03
2019-05-29T21:15:43.761Z,3.37
2019-05-29T21:18:12.294Z,3.10
2019-05-29T21:20:40.822Z,3.40
2019-05-29T21:23:09.288Z,3.30
2019-05-29T21:25:40.732Z,3.47
2019-05-29T21:28:09.455Z,2.97
2019-05-29T21:30:37.965Z,2.73
2019-05-29T21:33:06.444Z,3.20
2019-05-29T21:35:36.074Z,3.50
2019-05-29T21:38:04.708Z,3.73
2019-05-29T21:40:33.181Z,2.90
2019-05-29T21:43:01.685Z,3.23
2019-05-29T21:45:30.203Z,3.57
2019-05-29T21:47:58.712Z,4.43
2019-05-29T21:50:27.221Z,3.13
2019-05-29T21:52:55.712Z,4.33
2019-05-29T21:55:24.185Z,3.33
2019-05-29T21:57:52.716Z,3.87
2019-05-29T22:00:38.000Z,4.20
2019-05-29T22:03:06.541Z,3.90
2019-05-29T22:05:35.015Z,4.10
2019-05-29T22:08:03.497Z,3.97
2019-05-29T22:10:32.145Z,3.77
2019-05-29T22:13:01.001Z,3.17
2019-05-29T22:15:29.702Z,3.60
2019-05-29T22:17:59.178Z,4.07
2019-05-29T22:20:27.780Z,3.83
2019-05-29T22:22:57.191Z,3.90
2019-05-29T22:25:25.906Z,3.53
2019-05-29T22:27:55.614Z,2.83
2019-05-29T22:30:24.217Z,2.93
2019-05-29T22:32:53.251Z,3.70
2019-05-29T22:35:22.073Z,2.40
2019-05-29T22:37:51.540Z,2.30
2019-05-29T22:40:20.369Z,2.80
2019-05-29T22:42:48.843Z,3.30
2019-05-29T22:45:17.742Z,3.03
2019-05-29T22:47:46.265Z,2.50
2019-05-29T22:50:14.896Z,3.40
2019-05-29T22:52:43.463Z,2.23
2019-05-29T22:55:12.134Z,3.00
2019-05-29T22:57:40.625Z,3.30
2019-05-29T23:00:10.009Z,3.50
2019-05-29T23:02:38.530Z,2.73
2019-05-29T23:05:07.599Z,3.27
2019-05-29T23:07:36.078Z,3.37
2019-05-29T23:10:07.940Z,3.50
2019-05-29T23:12:36.418Z,3.70
2019-05-29T23:15:07.874Z,3.50
2019-05-29T23:17:37.401Z,3.37
2019-05-29T23:20:07.891Z,4.00
2019-05-29T23:22:36.437Z,3.20
2019-05-29T23:25:05.941Z,3.00
2019-05-29T23:27:35.260Z,3.27
2019-05-29T23:30:05.460Z,3.20
2019-05-29T23:32:33.990Z,3.13
2019-05-29T23:35:03.525Z,3.27
2019-05-29T23:37:33.098Z,4.60
2019-05-29T23:40:01.682Z,2.87
2019-05-29T23:42:30.152Z,3.00
2019-05-29T23:44:59.443Z,3.67
2019-05-29T23:47:28.135Z,3.13
2019-05-29T23:49:57.555Z,3.03
2019-05-29T23:52:26.159Z,3.00
2019-05-29T23:54:55.703Z,3.73
2019-05-29T23:57:24.239Z,3.77
